Time;durP1;ratioP1;P1;durP2;ratioP2;P2;SDS_P1;SDS_P2;PMS_P1;PMS_P2;Temp;Humidity;BMP_temperature;BMP_pressure;BME280_temperature;BME280_humidity;BME280_pressure;Samples;Min_cycle;Max_cycle;Signal;HPM_P1;HPM_P2
2023/04/01 00:00:58;;;;;;;7.13;3.90;;;9.70;99.90;;;;;;5094521;28;20075;-77
2023/04/01 00:03:26;;;;;;;6.38;4.03;;;9.70;99.90;;;;;;5094145;28;20087;-76
2023/04/01 00:05:51;;;;;;;9.30;4.05;;;9.70;99.90;;;;;;5094255;28;20492;-78
2023/04/01 00:08:17;;;;;;;8.85;4.13;;;9.70;99.90;;;;;;5094176;28;20079;-78
2023/04/01 00:10:44;;;;;;;6.87;3.50;;;9.70;99.90;;;;;;5094107;28;20075;-76
2023/04/01 00:13:10;;;;;;;6.00;3.60;;;9.80;99.90;;;;;;5094143;28;20088;-78
2023/04/01 00:15:35;;;;;;;5.80;3.67;;;9.70;99.90;;;;;;5094140;28;20480;-76
2023/04/01 00:18:01;;;;;;;6.53;4.07;;;9.80;99.90;;;;;;5093072;28;20040;-77
2023/04/01 00:20:27;;;;;;;8.00;3.90;;;10.00;99.90;;;;;;5094014;28;20047;-76
2023/04/01 00:22:53;;;;;;;6.40;3.90;;;9.70;99.90;;;;;;5094021;28;20467;-77
2023/04/01 00:25:18;;;;;;;5.55;3.92;;;9.70;99.90;;;;;;5093640;28;20043;-77
2023/04/01 00:27:44;;;;;;;5.32;3.92;;;9.70;99.90;;;;;;5094237;28;20050;-76
2023/04/01 00:30:11;;;;;;;8.52;3.88;;;9.70;99.90;;;;;;5093756;28;20048;-78
2023/04/01 00:32:37;;;;;;;6.03;3.67;;;10.10;99.90;;;;;;5094078;28;20040;-77
2023/04/01 00:35:03;;;;;;;10.10;4.25;;;9.70;99.90;;;;;;5093798;28;20044;-78
2023/04/01 00:37:30;;;;;;;6.45;4.18;;;9.70;99.90;;;;;;5093476;28;20484;-76
2023/04/01 00:39:55;;;;;;;9.30;3.85;;;9.70;99.90;;;;;;5093710;28;20055;-77
2023/04/01 00:42:21;;;;;;;5.88;3.78;;;9.70;99.90;;;;;;5093750;28;20048;-77
2023/04/01 00:44:54;;;;;;;7.00;3.55;;;9.70;99.90;;;;;;5093742;28;20052;-78
2023/04/01 00:47:22;;;;;;;7.30;4.38;;;9.70;99.90;;;;;;5093404;28;20044;-78
2023/04/01 00:49:50;;;;;;;5.38;3.75;;;9.70;99.90;;;;;;5093619;28;20468;-78
2023/04/01 00:52:22;;;;;;;5.97;3.60;;;9.70;99.90;;;;;;5093503;28;20056;-77
2023/04/01 00:54:52;;;;;;;6.40;3.45;;;9.70;99.90;;;;;;5093884;28;20391;-77
2023/04/01 00:57:45;;;;;;;6.45;3.47;;;10.10;99.90;;;;;;5093866;28;20388;-77
2023/04/01 01:00:14;;;;;;;5.40;3.33;;;9.70;99.90;;;;;;5090920;28;20407;-78
2023/04/01 01:02:42;;;;;;;5.57;3.80;;;9.70;99.90;;;;;;5093537;28;20033;-78
2023/04/01 01:05:11;;;;;;;7.03;3.35;;;9.60;99.90;;;;;;5093503;28;20089;-78
2023/04/01 01:07:47;;;;;;;6.07;3.65;;;9.60;99.90;;;;;;5093404;28;20050;-77
2023/04/01 01:10:39;;;;;;;6.40;3.10;;;9.60;99.90;;;;;;5093739;28;20097;-77
2023/04/01 01:13:23;;;;;;;7.40;3.28;;;9.60;99.90;;;;;;5089582;28;20087;-78
2023/04/01 01:16:08;;;;;;;4.05;3.15;;;9.60;99.90;;;;;;5093172;28;20503;-78
2023/04/01 01:18:49;;;;;;;6.47;3.30;;;9.60;99.90;;;;;;5093558;28;20047;-77
2023/04/01 01:21:35;;;;;;;4.55;2.88;;;9.60;99.90;;;;;;5093363;28;20051;-78
2023/04/01 01:24:33;;;;;;;7.65;3.33;;;9.60;99.90;;;;;;5093775;28;20055;-78
2023/04/01 01:27:03;;;;;;;4.20;3.10;;;9.60;99.90;;;;;;5091549;28;20515;-78
2023/04/01 01:29:46;;;;;;;6.32;3.60;;;9.60;99.90;;;;;;5092036;28;20500;-77
2023/04/01 01:32:30;;;;;;;6.90;3.80;;;9.60;99.90;;;;;;5093100;28;20052;-76
2023/04/01 01:35:32;;;;;;;8.55;3.38;;;9.60;99.90;;;;;;5093721;28;20388;-77
2023/04/01 01:38:12;;;;;;;6.20;2.80;;;9.60;99.90;;;;;;5093368;28;20391;-77
2023/04/01 01:40:41;;;;;;;6.97;3.65;;;9.60;99.90;;;;;;5093318;28;20391;-77
2023/04/01 01:43:11;;;;;;;7.75;3.42;;;9.60;99.90;;;;;;5093086;28;20055;-78
2023/04/01 01:45:42;;;;;;;6.88;3.38;;;9.60;99.90;;;;;;5093158;28;20036;-77
2023/04/01 01:48:09;;;;;;;10.07;3.53;;;9.60;99.90;;;;;;5093195;28;20068;-76
2023/04/01 01:50:36;;;;;;;5.53;3.70;;;9.70;99.90;;;;;;5093072;28;20039;-77
2023/04/01 01:53:06;;;;;;;6.97;3.90;;;9.60;99.90;;;;;;5092925;28;20196;-77
2023/04/01 01:55:35;;;;;;;8.13;4.07;;;9.60;99.90;;;;;;5093138;28;20404;-79
2023/04/01 01:58:19;;;;;;;8.45;4.07;;;9.60;99.90;;;;;;5093663;28;20075;-78
2023/04/01 02:00:58;;;;;;;7.18;4.95;;;9.60;99.90;;;;;;5096818;28;20127;-78
2023/04/01 02:03:26;;;;;;;9.02;4.03;;;9.60;99.90;;;;;;5096606;28;20048;-77
2023/04/01 02:05:56;;;;;;;6.22;3.80;;;9.60;99.90;;;;;;5096488;28;20036;-78
2023/04/01 02:08:33;;;;;;;7.63;4.15;;;9.60;99.90;;;;;;5096588;28;20232;-77
2023/04/01 02:11:06;;;;;;;7.35;3.83;;;9.50;99.90;;;;;;5096555;28;20040;-78
2023/04/01 02:13:53;;;;;;;6.70;3.88;;;9.60;99.90;;;;;;5096483;28;20090;-77
2023/04/01 02:16:40;;;;;;;6.87;3.97;;;9.60;99.90;;;;;;5096440;28;20048;-77
2023/04/01 02:19:07;;;;;;;8.15;3.92;;;9.60;99.90;;;;;;5096257;28;20089;-79
2023/04/01 02:21:35;;;;;;;10.43;4.95;;;9.60;99.90;;;;;;5095923;28;20052;-79
2023/04/01 02:24:05;;;;;;;7.70;4.53;;;9.50;99.90;;;;;;5096228;28;20044;-78
2023/04/01 02:26:31;;;;;;;8.18;4.35;;;9.60;99.90;;;;;;5095862;28;20511;-78
2023/04/01 02:28:59;;;;;;;8.90;4.27;;;9.70;99.90;;;;;;5096121;28;20080;-77
2023/04/01 02:31:25;;;;;;;10.60;4.47;;;9.60;99.90;;;;;;5096365;28;20688;-77
2023/04/01 02:33:51;;;;;;;7.32;4.25;;;9.50;99.90;;;;;;5096065;28;20048;-78
2023/04/01 02:36:17;;;;;;;8.60;4.10;;;9.50;99.90;;;;;;5095897;28;20044;-78
2023/04/01 02:38:45;;;;;;;7.32;4.43;;;9.50;99.90;;;;;;5095905;28;20351;-78
2023/04/01 02:41:11;;;;;;;8.27;4.05;;;9.60;99.90;;;;;;5095888;28;20044;-78
2023/04/01 02:43:37;;;;;;;7.43;4.20;;;9.50;99.90;;;;;;5096009;28;20040;-77
2023/04/01 02:46:03;;;;;;;8.40;4.50;;;9.50;99.90;;;;;;5095816;28;20587;-77
2023/04/01 02:48:29;;;;;;;8.95;4.53;;;9.60;99.90;;;;;;5095523;28;20056;-77
2023/04/01 02:50:54;;;;;;;7.93;4.82;;;9.50;99.90;;;;;;5095744;28;20048;-77
2023/04/01 02:53:20;;;;;;;8.27;4.80;;;9.60;99.90;;;;;;5095617;28;20108;-78
2023/04/01 02:55:46;;;;;;;8.75;4.10;;;9.70;99.90;;;;;;5095534;28;20040;-77
2023/04/01 02:58:11;;;;;;;7.63;4.43;;;9.60;99.90;;;;;;5095571;28;20102;-78
2023/04/01 03:00:37;;;;;;;8.02;4.43;;;9.60;99.90;;;;;;5095488;28;20050;-77
2023/04/01 03:03:03;;;;;;;8.40;4.50;;;9.80;99.90;;;;;;5095162;28;20506;-78
2023/04/01 03:05:29;;;;;;;6.15;4.30;;;9.60;99.90;;;;;;5095379;28;20044;-78
2023/04/01 03:07:54;;;;;;;10.10;4.82;;;9.50;99.90;;;;;;5095324;28;20048;-78
2023/04/01 03:10:20;;;;;;;7.53;4.57;;;9.50;99.90;;;;;;5093964;28;20048;-78
2023/04/01 03:12:46;;;;;;;7.43;4.45;;;9.70;99.90;;;;;;5095756;28;20044;-77
2023/04/01 03:15:14;;;;;;;6.95;4.30;;;9.50;99.90;;;;;;5094204;28;20047;-76
2023/04/01 03:17:41;;;;;;;7.43;4.50;;;9.50;99.90;;;;;;5095102;28;20040;-78
2023/04/01 03:20:08;;;;;;;7.82;4.28;;;9.50;99.90;;;;;;5095199;28;20132;-79
2023/04/01 03:22:35;;;;;;;6.05;4.15;;;9.50;99.90;;;;;;5095052;28;20036;-78
2023/04/01 03:25:01;;;;;;;7.88;4.50;;;9.60;99.90;;;;;;5095015;28;20396;-78
2023/04/01 03:27:27;;;;;;;6.72;4.53;;;9.50;99.90;;;;;;5095133;28;20047;-77
2023/04/01 03:29:52;;;;;;;7.78;4.40;;;9.50;99.90;;;;;;5095434;28;20048;-78
2023/04/01 03:32:18;;;;;;;7.97;4.20;;;9.60;99.90;;;;;;5094937;28;20044;-76
2023/04/01 03:34:43;;;;;;;5.57;3.60;;;9.60;99.90;;;;;;5095088;28;20046;-77
2023/04/01 03:37:09;;;;;;;6.32;3.85;;;9.50;99.90;;;;;;5094879;28;20051;-77
2023/04/01 03:39:35;;;;;;;9.65;4.25;;;9.60;99.90;;;;;;5094695;28;20036;-76
2023/04/01 03:42:00;;;;;;;6.32;3.92;;;9.60;99.90;;;;;;5094846;28;20384;-79
2023/04/01 03:44:30;;;;;;;7.25;4.18;;;9.50;99.90;;;;;;5094735;28;20048;-78
2023/04/01 03:46:55;;;;;;;7.97;4.07;;;9.50;99.90;;;;;;5094674;28;20047;-78
2023/04/01 03:49:21;;;;;;;7.95;3.90;;;9.50;99.90;;;;;;5094597;28;20051;-77
2023/04/01 03:51:46;;;;;;;6.47;3.97;;;9.60;99.90;;;;;;5094603;28;20514;-75
2023/04/01 03:54:12;;;;;;;8.05;4.10;;;9.50;99.90;;;;;;5094493;28;20036;-76
2023/04/01 03:56:38;;;;;;;7.18;4.28;;;9.50;99.90;;;;;;5094459;28;20080;-76
2023/04/01 03:59:06;;;;;;;6.07;3.63;;;9.60;99.90;;;;;;5094351;28;20494;-76
2023/04/01 04:01:32;;;;;;;8.48;3.65;;;9.60;99.90;;;;;;5094243;28;20048;-77
2023/04/01 04:03:58;;;;;;;5.47;3.85;;;9.60;99.90;;;;;;5094350;28;20456;-78
2023/04/01 04:06:24;;;;;;;7.50;3.83;;;9.60;99.90;;;;;;5094579;28;20048;-75
2023/04/01 04:08:50;;;;;;;5.20;3.50;;;9.60;99.90;;;;;;5094201;28;20137;-87
2023/04/01 04:11:16;;;;;;;6.85;3.72;;;9.50;99.90;;;;;;5093231;28;20083;-77
2023/04/01 04:13:43;;;;;;;8.52;3.55;;;9.60;99.90;;;;;;5094554;28;20055;-77
2023/04/01 04:16:09;;;;;;;6.55;3.80;;;10.00;99.90;;;;;;5092927;28;20048;-80
2023/04/01 04:18:35;;;;;;;6.30;3.58;;;9.50;99.90;;;;;;5094099;28;20577;-79
2023/04/01 04:21:01;;;;;;;5.67;3.47;;;9.70;99.90;;;;;;5092533;28;20044;-75
2023/04/01 04:23:29;;;;;;;6.53;3.97;;;9.50;99.90;;;;;;5093893;28;20552;-75
2023/04/01 04:26:01;;;;;;;6.07;3.90;;;9.60;99.90;;;;;;5094324;28;20047;-75
2023/04/01 04:28:27;;;;;;;6.68;3.20;;;9.50;99.90;;;;;;5093913;28;20101;-75
2023/04/01 04:30:54;;;;;;;4.90;2.90;;;9.50;99.90;;;;;;5093860;28;20051;-75
2023/04/01 04:33:21;;;;;;;5.28;3.22;;;9.60;99.90;;;;;;5093915;28;20044;-76
2023/04/01 04:35:46;;;;;;;4.50;3.22;;;9.60;99.90;;;;;;5093675;28;20075;-75
2023/04/01 04:38:12;;;;;;;5.97;3.17;;;9.60;99.90;;;;;;5093289;28;20090;-75
2023/04/01 04:40:39;;;;;;;4.65;3.22;;;9.60;99.90;;;;;;5093805;28;20044;-75
2023/04/01 04:43:05;;;;;;;5.80;3.63;;;9.60;99.90;;;;;;5093698;28;20119;-75
2023/04/01 04:45:30;;;;;;;6.80;4.00;;;10.30;99.90;;;;;;5093743;28;20090;-75
2023/04/01 04:47:56;;;;;;;8.38;3.95;;;9.60;99.90;;;;;;5093419;28;20119;-76
2023/04/01 04:50:23;;;;;;;6.25;3.67;;;9.70;99.90;;;;;;5093758;28;20059;-76
2023/04/01 04:52:49;;;;;;;6.05;3.70;;;9.60;99.90;;;;;;5093541;28;20082;-75
2023/04/01 04:55:15;;;;;;;7.20;4.03;;;9.60;99.90;;;;;;5093645;28;20072;-75
2023/04/01 04:57:40;;;;;;;6.97;4.20;;;9.60;99.90;;;;;;5093575;28;20047;-76
2023/04/01 05:00:07;;;;;;;6.53;4.30;;;9.60;99.90;;;;;;5092565;28;20048;-76
2023/04/01 05:02:33;;;;;;;9.35;4.90;;;9.60;99.90;;;;;;5093595;28;20122;-75
2023/04/01 05:04:59;;;;;;;8.40;5.55;;;9.60;99.90;;;;;;5093566;28;20527;-76
2023/04/01 05:07:25;;;;;;;13.27;6.10;;;10.00;99.90;;;;;;5093416;28;20044;-75
2023/04/01 05:09:50;;;;;;;8.98;5.72;;;9.60;99.90;;;;;;5093445;28;20090;-76
2023/04/01 05:12:16;;;;;;;8.75;5.57;;;9.70;99.90;;;;;;5093460;28;20559;-75
2023/04/01 05:14:41;;;;;;;12.63;5.95;;;9.60;99.90;;;;;;5093406;28;20093;-76
2023/04/01 05:17:11;;;;;;;11.63;5.70;;;9.70;99.90;;;;;;5093584;28;20052;-75
2023/04/01 05:19:38;;;;;;;11.00;5.93;;;9.70;99.90;;;;;;5091903;28;20040;-74
2023/04/01 05:22:05;;;;;;;9.27;5.30;;;9.70;99.90;;;;;;5093316;28;20040;-75
2023/04/01 05:24:31;;;;;;;7.97;5.60;;;9.70;99.90;;;;;;5093386;28;20055;-76
2023/04/01 05:26:57;;;;;;;9.27;5.80;;;9.70;99.90;;;;;;5093642;28;20086;-75
2023/04/01 05:29:23;;;;;;;11.90;6.73;;;9.70;99.90;;;;;;5091920;28;20044;-75
2023/04/01 05:31:49;;;;;;;12.82;7.00;;;9.70;99.90;;;;;;5092887;28;20093;-74
2023/04/01 05:34:15;;;;;;;11.40;7.20;;;9.70;99.90;;;;;;5095411;28;20445;-73
2023/04/01 05:36:41;;;;;;;11.50;7.18;;;9.80;99.90;;;;;;5096930;28;20048;-75
2023/04/01 05:39:08;;;;;;;12.68;7.75;;;9.70;99.90;;;;;;5096886;28;20047;-74
2023/04/01 05:41:37;;;;;;;15.02;8.73;;;10.10;99.90;;;;;;5096809;28;20047;-75
2023/04/01 05:44:04;;;;;;;13.85;8.90;;;9.80;99.90;;;;;;5096653;28;20395;-77
2023/04/01 05:46:31;;;;;;;15.20;8.95;;;9.80;99.90;;;;;;5096624;28;20080;-72
2023/04/01 05:48:57;;;;;;;13.25;8.98;;;9.80;99.90;;;;;;5096708;28;20117;-77
2023/04/01 05:51:23;;;;;;;12.32;8.40;;;9.80;99.90;;;;;;5096196;28;20048;-74
2023/04/01 05:53:49;;;;;;;15.02;8.50;;;9.80;99.90;;;;;;5096578;28;20050;-74
2023/04/01 05:56:14;;;;;;;16.60;9.30;;;9.80;99.90;;;;;;5096493;28;20093;-75
2023/04/01 05:58:40;;;;;;;13.32;8.45;;;9.80;99.90;;;;;;5096320;28;20044;-76
2023/04/01 06:01:08;;;;;;;14.73;8.18;;;9.80;99.90;;;;;;5096700;28;20399;-78
2023/04/01 06:03:34;;;;;;;13.43;8.52;;;9.80;99.90;;;;;;5096441;28;20083;-84
2023/04/01 06:06:00;;;;;;;15.23;8.77;;;9.80;99.90;;;;;;5096238;28;20079;-77
2023/04/01 06:08:27;;;;;;;13.52;8.20;;;9.80;99.90;;;;;;5096619;28;20123;-81
2023/04/01 06:11:14;;;;;;;12.43;8.77;;;9.80;99.90;;;;;;5095965;28;20047;-79
2023/04/01 06:13:54;;;;;;;17.65;9.00;;;9.80;99.90;;;;;;5096403;28;20128;-79
2023/04/01 06:16:34;;;;;;;12.20;8.55;;;9.90;99.90;;;;;;5095917;28;20040;-83
2023/04/01 06:19:28;;;;;;;12.65;8.75;;;9.90;99.90;;;;;;5096156;28;20477;-77
2023/04/01 06:22:26;;;;;;;13.18;8.85;;;9.90;99.90;;;;;;5096067;28;20040;-77
2023/04/01 06:24:54;;;;;;;13.60;8.53;;;9.90;99.90;;;;;;5094321;28;20104;-79
2023/04/01 06:27:32;;;;;;;13.40;8.48;;;10.00;99.90;;;;;;5096021;28;20047;-76
2023/04/01 06:30:21;;;;;;;13.00;8.50;;;10.30;99.90;;;;;;5096296;28;20079;-80
2023/04/01 06:33:06;;;;;;;15.45;8.93;;;9.90;99.90;;;;;;5094312;28;20442;-78
2023/04/01 06:35:53;;;;;;;14.18;8.57;;;10.00;99.90;;;;;;5095779;28;20096;-77
2023/04/01 06:38:38;;;;;;;13.02;8.57;;;10.00;99.90;;;;;;5095385;28;20495;-79
2023/04/01 06:41:28;;;;;;;13.95;8.82;;;10.00;99.90;;;;;;5095133;28;20051;-78
2023/04/01 06:44:31;;;;;;;16.13;8.95;;;10.00;99.90;;;;;;5077333;28;20079;-76
2023/04/01 06:47:01;;;;;;;17.13;9.45;;;10.00;99.90;;;;;;5077405;28;20102;-85
2023/04/01 06:49:46;;;;;;;15.20;9.55;;;10.70;99.90;;;;;;5093638;28;20048;-85
2023/04/01 06:52:20;;;;;;;15.05;9.45;;;10.10;99.90;;;;;;5094390;28;20047;-82
2023/04/01 06:55:01;;;;;;;15.15;9.18;;;10.10;99.90;;;;;;5076787;28;20488;-83
2023/04/01 06:57:43;;;;;;;13.63;9.13;;;10.10;99.90;;;;;;5095026;28;20048;-82
2023/04/01 07:00:20;;;;;;;14.23;9.02;;;10.10;99.90;;;;;;5093280;28;20185;-79
2023/04/01 07:02:57;;;;;;;16.40;8.75;;;10.10;99.90;;;;;;5093526;28;20521;-77
2023/04/01 07:05:25;;;;;;;16.98;8.70;;;10.20;99.90;;;;;;5095545;28;20437;-84
2023/04/01 07:07:56;;;;;;;16.40;9.80;;;10.10;99.90;;;;;;5093005;28;20991;-80
2023/04/01 07:10:37;;;;;;;15.77;9.27;;;10.20;99.90;;;;;;5094904;28;20063;-77
2023/04/01 07:13:12;;;;;;;13.02;8.25;;;10.20;99.90;;;;;;5093547;28;20040;-81
2023/04/01 07:15:41;;;;;;;14.68;8.98;;;10.20;99.90;;;;;;5093188;28;20115;-82
2023/04/01 07:18:34;;;;;;;14.05;8.68;;;10.20;99.90;;;;;;5093619;28;20055;-80
2023/04/01 07:21:02;;;;;;;13.27;8.30;;;10.30;99.90;;;;;;5082648;28;20056;-80
2023/04/01 07:23:40;;;;;;;13.93;8.77;;;10.30;99.90;;;;;;5093452;28;20345;-77
2023/04/01 07:26:21;;;;;;;13.15;8.20;;;10.30;99.90;;;;;;5093911;28;20044;-79
2023/04/01 07:28:50;;;;;;;12.13;7.72;;;10.30;99.90;;;;;;5094305;28;20130;-83
2023/04/01 07:31:28;;;;;;;14.00;7.90;;;10.30;99.90;;;;;;5093199;28;20131;-79
2023/04/01 07:34:12;;;;;;;;;;;10.30;99.90;;;;;;5110482;28;20135;-78
2023/04/01 07:36:46;;;;;;;11.00;7.15;;;10.40;99.90;;;;;;5093636;28;19927;-78
2023/04/01 07:39:24;;;;;;;11.73;7.30;;;10.40;99.90;;;;;;5110015;28;20047;-81
2023/04/01 07:42:02;;;;;;;;;;;10.40;99.90;;;;;;5093446;28;20055;-77
2023/04/01 07:44:59;;;;;;;11.63;6.95;;;10.40;99.90;;;;;;5093324;28;19920;-78
2023/04/01 07:47:49;;;;;;;11.65;7.00;;;10.40;99.90;;;;;;5093405;28;20110;-78
2023/04/01 07:50:26;;;;;;;11.52;7.32;;;10.40;99.90;;;;;;5093237;28;20098;-78
2023/04/01 07:53:10;;;;;;;;;;;10.40;99.90;;;;;;5094454;28;20055;-77
2023/04/01 07:55:57;;;;;;;12.40;7.68;;;10.40;99.90;;;;;;5093574;28;19931;-76
2023/04/01 07:59:00;;;;;;;13.85;8.02;;;10.40;99.90;;;;;;5092699;28;20429;-81
2023/04/01 08:01:45;;;;;;;14.98;7.75;;;10.40;99.90;;;;;;5092867;28;20044;-80
2023/04/01 08:04:22;;;;;;;13.65;8.05;;;10.40;99.90;;;;;;5092894;28;20044;-77
2023/04/01 08:07:09;;;;;;;14.30;8.13;;;10.40;99.90;;;;;;5109689;28;20044;-79
2023/04/01 08:10:03;;;;;;;12.98;7.50;;;10.40;99.90;;;;;;5093655;28;20100;-78
2023/04/01 08:13:01;;;;;;;11.57;6.88;;;10.40;99.90;;;;;;5093948;28;20084;-78
2023/04/01 08:15:41;;;;;;;13.32;7.38;;;10.50;99.90;;;;;;5092838;28;20054;-76
2023/04/01 08:18:14;;;;;;;11.25;7.55;;;10.50;99.90;;;;;;5093570;28;20087;-77
2023/04/01 08:21:02;;;;;;;10.18;6.75;;;10.50;99.90;;;;;;5092551;28;20127;-79
2023/04/01 08:23:36;;;;;;;12.18;6.63;;;10.50;99.90;;;;;;5073073;28;20044;-77
2023/04/01 08:26:26;;;;;;;8.50;5.40;;;10.60;99.90;;;;;;5073002;28;20167;-78
2023/04/01 08:29:02;;;;;;;8.50;4.78;;;10.60;99.90;;;;;;5072864;28;20504;-78
2023/04/01 08:31:37;;;;;;;6.57;4.38;;;11.20;99.90;;;;;;5072642;28;20102;-75
2023/04/01 08:34:08;;;;;;;7.43;5.30;;;10.60;99.90;;;;;;5072237;28;20047;-78
2023/04/01 08:36:41;;;;;;;7.25;4.50;;;10.70;99.90;;;;;;5072710;28;20052;-75
2023/04/01 08:39:30;;;;;;;6.50;3.92;;;10.80;99.90;;;;;;5073087;28;20052;-78
2023/04/01 08:42:31;;;;;;;6.22;3.67;;;10.70;99.90;;;;;;5071966;28;20056;-78
2023/04/01 08:45:18;;;;;;;5.32;3.50;;;10.80;99.90;;;;;;5072135;28;20052;-76
2023/04/01 08:47:56;;;;;;;4.97;3.33;;;10.80;99.90;;;;;;5072261;28;20051;-79
2023/04/01 08:50:26;;;;;;;5.55;3.45;;;10.90;99.90;;;;;;5072687;28;20109;-76
2023/04/01 08:53:19;;;;;;;5.53;3.65;;;11.50;99.90;;;;;;5072111;28;20130;-76
2023/04/01 08:56:03;;;;;;;5.45;3.40;;;11.20;99.90;;;;;;5072970;28;20091;-78
2023/04/01 08:58:59;;;;;;;3.80;2.55;;;11.40;99.90;;;;;;5090337;28;20044;-76
2023/04/01 09:01:36;;;;;;;5.13;3.03;;;11.20;99.90;;;;;;5091927;28;20048;-75
2023/04/01 09:04:15;;;;;;;6.43;2.20;;;11.10;99.90;;;;;;5091903;28;20048;-77
2023/04/01 09:07:04;;;;;;;3.35;2.40;;;11.10;99.90;;;;;;5093001;28;20113;-77
2023/04/01 09:09:48;;;;;;;2.80;1.85;;;11.00;99.90;;;;;;5096254;28;20480;-77
2023/04/01 09:12:33;;;;;;;2.78;2.08;;;11.00;99.90;;;;;;5096443;28;20082;-80
2023/04/01 09:15:16;;;;;;;3.80;2.25;;;11.00;99.90;;;;;;5097314;28;20104;-75
2023/04/01 09:18:12;;;;;;;4.18;2.90;;;11.00;99.90;;;;;;5097275;28;20048;-74
2023/04/01 09:21:16;;;;;;;4.65;3.17;;;11.00;99.90;;;;;;5097056;28;20055;-74
2023/04/01 09:23:53;;;;;;;5.13;3.25;;;10.90;99.90;;;;;;5088366;28;20063;-74
2023/04/01 09:26:48;;;;;;;6.53;3.60;;;11.00;99.90;;;;;;5097173;28;20055;-77
2023/04/01 09:29:29;;;;;;;4.72;3.20;;;10.90;99.90;;;;;;5065288;28;20048;-76
2023/04/01 09:32:11;;;;;;;6.63;4.03;;;10.90;99.90;;;;;;5096870;28;20043;-74
2023/04/01 09:34:45;;;;;;;6.13;4.18;;;11.00;99.90;;;;;;5096950;28;20051;-76
2023/04/01 09:37:51;;;;;;;7.22;4.40;;;10.90;99.90;;;;;;5097028;28;20434;-77
2023/04/01 09:40:33;;;;;;;7.38;4.15;;;11.00;99.90;;;;;;5096860;28;20036;-75
2023/04/01 09:43:30;;;;;;;7.25;5.20;;;11.00;99.90;;;;;;5096652;28;20139;-76
2023/04/01 09:46:23;;;;;;;9.00;4.53;;;11.10;99.90;;;;;;5096717;28;20040;-75
2023/04/01 09:49:00;;;;;;;6.65;4.30;;;11.10;99.90;;;;;;5096683;28;20130;-79
2023/04/01 09:51:32;;;;;;;6.38;4.32;;;11.20;99.90;;;;;;5096580;28;20066;-76
2023/04/01 09:54:26;;;;;;;6.60;4.18;;;11.10;99.90;;;;;;5096353;28;20356;-76
2023/04/01 09:57:00;;;;;;;5.00;3.70;;;11.20;99.90;;;;;;5096452;28;20060;-76
2023/04/01 09:59:50;;;;;;;5.63;3.85;;;11.20;99.90;;;;;;5096487;28;20053;-76
2023/04/01 10:02:34;;;;;;;6.78;4.20;;;11.30;99.90;;;;;;5096043;28;20040;-76
2023/04/01 10:05:25;;;;;;;5.82;4.07;;;11.30;99.90;;;;;;5095593;28;20036;-85
2023/04/01 10:08:10;;;;;;;8.20;4.38;;;11.30;99.90;;;;;;5097000;28;20387;-82
2023/04/01 10:11:05;;;;;;;5.45;3.55;;;11.70;99.90;;;;;;5096922;28;20361;-77
2023/04/01 10:14:00;;;;;;;6.03;4.18;;;11.40;99.90;;;;;;5096407;28;20434;-77
2023/04/01 10:16:45;;;;;;;7.43;4.20;;;11.50;99.90;;;;;;5102366;28;20144;-77
2023/04/01 10:19:22;;;;;;;5.72;4.13;;;11.60;99.90;;;;;;5095496;28;20142;-77
2023/04/01 10:21:51;;;;;;;6.38;4.18;;;11.60;99.90;;;;;;5096282;28;20040;-76
2023/04/01 10:24:17;;;;;;;6.75;4.30;;;11.70;99.90;;;;;;5096200;28;20381;-84
2023/04/01 10:27:07;;;;;;;7.38;4.68;;;11.80;99.90;;;;;;5096274;28;20131;-78
2023/04/01 10:29:47;;;;;;;5.32;3.80;;;11.80;99.90;;;;;;5096112;28;20123;-84
2023/04/01 10:32:30;;;;;;;5.68;4.10;;;11.90;99.90;;;;;;5096597;28;20043;-81
2023/04/01 10:35:21;;;;;;;7.30;4.97;;;12.00;99.90;;;;;;5095409;28;20046;-76
2023/04/01 10:37:46;;;;;;;6.53;4.25;;;12.10;99.90;;;;;;5095652;28;20430;-76
2023/04/01 10:40:54;;;;;;;6.95;4.43;;;12.10;99.90;;;;;;5096329;28;20048;-76
2023/04/01 10:43:29;;;;;;;6.25;4.28;;;12.10;99.90;;;;;;5096149;28;20048;-76
2023/04/01 10:46:21;;;;;;;6.05;4.20;;;12.10;99.90;;;;;;5095831;28;20040;-76
2023/04/01 10:49:08;;;;;;;5.60;4.05;;;12.10;99.90;;;;;;5095419;28;20531;-76
2023/04/01 10:51:45;;;;;;;4.78;3.30;;;12.10;99.90;;;;;;5095768;28;20052;-76
2023/04/01 10:54:29;;;;;;;5.10;3.63;;;12.10;99.90;;;;;;5095775;28;20059;-76
2023/04/01 10:57:21;;;;;;;5.60;3.97;;;12.10;99.90;;;;;;5095535;28;20044;-76
2023/04/01 11:00:06;;;;;;;4.60;3.33;;;12.10;99.90;;;;;;5095380;28;20090;-76
2023/04/01 11:03:11;;;;;;;5.10;3.72;;;12.10;99.90;;;;;;5095325;28;20543;-76
2023/04/01 11:06:04;;;;;;;4.95;3.72;;;12.30;99.90;;;;;;5095651;28;20056;-76
2023/04/01 11:09:27;;;;;;;7.55;3.90;;;12.20;99.90;;;;;;5095599;28;20044;-76
2023/04/01 11:12:19;;;;;;;5.70;3.53;;;12.20;99.90;;;;;;4997238;28;20124;-76
2023/04/01 11:15:18;;;;;;;6.25;4.05;;;12.30;99.90;;;;;;5013528;28;20132;-77
2023/04/01 11:17:55;;;;;;;8.25;4.40;;;12.30;99.90;;;;;;5084755;28;20402;-76
2023/04/01 11:20:45;;;;;;;6.93;4.22;;;12.30;99.90;;;;;;5095071;28;20036;-76
2023/04/01 11:23:32;;;;;;;7.00;5.00;;;12.30;99.90;;;;;;5095124;28;20060;-76
2023/04/01 11:26:32;;;;;;;7.55;5.25;;;12.30;99.90;;;;;;5095096;28;20103;-76
2023/04/01 11:29:35;;;;;;;6.95;5.05;;;12.40;99.90;;;;;;5095041;28;20047;-76
2023/04/01 11:32:38;;;;;;;11.05;6.05;;;12.50;99.90;;;;;;5093779;28;20044;-76
2023/04/01 11:35:32;;;;;;;7.18;5.20;;;12.70;99.90;;;;;;5094817;28;20044;-76
2023/04/01 11:38:01;;;;;;;6.82;5.20;;;12.80;99.90;;;;;;5095069;28;20048;-76
2023/04/01 11:40:38;;;;;;;7.05;4.97;;;12.80;99.90;;;;;;5094531;28;20048;-76
2023/04/01 11:43:20;;;;;;;5.70;3.40;;;12.90;99.90;;;;;;5094787;28;20054;-76
2023/04/01 11:46:01;;;;;;;5.80;3.60;;;12.80;99.90;;;;;;5094667;28;20040;-76
2023/04/01 11:48:40;;;;;;;5.10;3.92;;;12.60;99.90;;;;;;5094463;28;20059;-76
2023/04/01 11:51:44;;;;;;;4.22;3.35;;;12.40;99.90;;;;;;5094531;28;20373;-76
2023/04/01 11:54:39;;;;;;;6.72;3.33;;;12.20;99.90;;;;;;5094567;28;20044;-76
2023/04/01 11:57:37;;;;;;;4.28;3.33;;;11.90;99.90;;;;;;5094522;28;20097;-75
2023/04/01 12:00:26;;;;;;;4.47;3.13;;;11.60;99.90;;;;;;5023555;28;20048;-76
2023/04/01 12:03:34;;;;;;;3.53;2.78;;;11.40;99.90;;;;;;5056280;28;20125;-75
2023/04/01 12:06:26;;;;;;;3.92;3.08;;;11.40;99.90;;;;;;5094833;28;20051;-75
2023/04/01 12:08:56;;;;;;;4.88;3.58;;;11.30;99.90;;;;;;5094483;28;20048;-76
2023/04/01 12:11:43;;;;;;;4.10;3.47;;;11.30;99.90;;;;;;5094448;28;20464;-76
2023/04/01 12:14:35;;;;;;;3.53;2.90;;;11.20;99.90;;;;;;5094091;28;20048;-76
2023/04/01 12:17:24;;;;;;;4.20;3.38;;;11.10;99.90;;;;;;5094184;28;20044;-76
2023/04/01 12:20:11;;;;;;;5.50;3.40;;;11.10;99.90;;;;;;5093677;28;20036;-76
2023/04/01 12:22:44;;;;;;;5.00;3.28;;;11.10;99.90;;;;;;5093957;28;20134;-75
2023/04/01 12:25:37;;;;;;;3.50;2.70;;;11.10;99.90;;;;;;5094080;28;20047;-76
2023/04/01 12:28:40;;;;;;;2.80;2.50;;;11.00;99.90;;;;;;5093956;28;20054;-76
2023/04/01 12:31:33;;;;;;;3.38;2.92;;;10.90;99.90;;;;;;5094361;28;20097;-76
2023/04/01 12:34:20;;;;;;;3.60;2.90;;;10.90;99.90;;;;;;5094035;28;20047;-76
2023/04/01 12:36:48;;;;;;;4.57;2.95;;;10.80;99.90;;;;;;5093708;28;20048;-76
2023/04/01 12:39:55;;;;;;;4.40;2.92;;;10.80;99.90;;;;;;5093572;28;20040;-76
2023/04/01 12:42:46;;;;;;;3.78;2.50;;;10.80;99.90;;;;;;5093433;28;20060;-76
2023/04/01 12:45:28;;;;;;;3.58;3.05;;;10.70;99.90;;;;;;5093732;28;20519;-75
2023/04/01 12:48:27;;;;;;;4.72;3.15;;;10.70;99.90;;;;;;5093555;28;20063;-76
2023/04/01 12:51:20;;;;;;;3.67;3.30;;;10.70;99.90;;;;;;5093897;28;20054;-77
2023/04/01 12:54:01;;;;;;;3.50;3.08;;;10.60;99.90;;;;;;5093651;28;20101;-76
2023/04/01 12:56:53;;;;;;;3.65;2.92;;;10.60;99.90;;;;;;5093615;28;20044;-76
2023/04/01 12:59:37;;;;;;;4.32;2.90;;;10.60;99.90;;;;;;5093762;28;20122;-76
2023/04/01 13:02:32;;;;;;;4.97;3.17;;;10.60;99.90;;;;;;5093607;28;20044;-77
2023/04/01 13:05:35;;;;;;;3.40;2.90;;;10.60;99.90;;;;;;5093882;28;20047;-76
2023/04/01 13:08:12;;;;;;;3.00;2.70;;;10.50;99.90;;;;;;5093319;28;20126;-76
2023/04/01 13:10:44;;;;;;;;;;;10.50;99.90;;;;;;5093934;28;20423;-76
2023/04/01 13:13:45;;;;;;;3.00;2.67;;;10.60;99.90;;;;;;5093804;28;20324;-76
2023/04/01 13:16:38;;;;;;;3.70;3.10;;;10.50;99.90;;;;;;5093698;28;20055;-76
2023/04/01 13:19:14;;;;;;;3.97;3.10;;;10.40;99.90;;;;;;5093799;28;20388;-76
2023/04/01 13:22:11;;;;;;;5.63;3.80;;;10.40;99.90;;;;;;5093683;28;20044;-76
2023/04/01 13:25:06;;;;;;;4.80;3.40;;;10.30;99.90;;;;;;5086843;28;20060;-76
2023/04/01 13:27:42;;;;;;;4.78;3.70;;;10.30;99.90;;;;;;5093263;28;20132;-77
2023/04/01 13:30:38;;;;;;;4.20;3.30;;;10.70;99.90;;;;;;5093482;28;20047;-76
2023/04/01 13:33:12;;;;;;;6.55;3.55;;;10.20;99.90;;;;;;5093237;28;20040;-77
2023/04/01 13:36:15;;;;;;;4.40;3.08;;;10.10;99.90;;;;;;5093252;28;20047;-76
2023/04/01 13:39:07;;;;;;;4.05;3.45;;;10.10;99.90;;;;;;5093459;28;20448;-76
2023/04/01 13:41:47;;;;;;;3.60;3.10;;;9.90;99.90;;;;;;5093212;28;20037;-76
2023/04/01 13:44:39;;;;;;;4.28;3.30;;;9.90;99.90;;;;;;5093183;28;20048;-76